Andersen AFB, Guam
Current Conditions -  °F | °C
As of 10:18 PM on Thursday 30 Oct 2014 (Local Time) from PGUA Reporting Station
Drizzle Drizzle  
Wind Chill: 77°   Ceiling: 1000
Heat Index: 78°   Visibility: 10mi
Dew Point: 75°   Wind: 12mph
Humidity: 94%   Direction: 110°ESE
Pressure: 29.83"   Gusts: NA
Location:  13.58°N, 144.92°E
Report Text: PGUA 301218Z AUTO 11010KT 10SM -DZ BKN010 25/24 A2983 RMK AO2 RAE1156DZB1156 BKN V SCT $
Loading
Personal Weather Stations






























Interactive Weather Map
Tropical Storm Tracking
New forecast layout! Learn more

10-Day Weather Forecast

Advertisements
Track Severe Weather on mobile